Main page
METAR-TAF:

METAR-TAF

Airports :

Ankara Esenboğa, Turkey

Esenboğa International Airport

latitude: 40-07N, longitude: 032-59E, elevation: 953 m

Current weather observation

The report was made 41 minutes ago, at 11:20 UTC
Wind 3 kt from variable directions
Temperature 28°C
Humidity 35%
Pressure 1014 hPa
Visibility 10 km or more
Few clouds at a height of 4000 ft

METAR: LTAC 261120Z VRB03KT 9999 FEW040 28/11 Q1014 NOSIG RMK RWY21L 07004KT 010V140 RWY03L VRB04KT RWY21R VRB04KT

Time: 15:01 (12:01 UTC)


TAF: missing

Weather observations and forecasts of more than 4000 airports (METAR and TAF reports).

The available stations are represented by yellow and red dots on the map.

Hover mouse over dot to see the name of the station.

Then click to see weather observations and forecasts.

To change the map : click on the green buttons with a black cross to zoom in, on the green button with a dash to zoom out, or on the green arrows for adjacent maps.


METAR-TAF: